Time,TemperatureF,DewpointF,PressureIn,WindDirection,WindDirectionDegrees,WindSpeedMPH,WindSpeedGustMPH,Humidity,HourlyPrecipIn,Conditions,Clouds,dailyrainin,SoftwareType,DateUTC
2013-04-10 00:12:00,64.5,54.0,30.05,SW,226,0.0,0.0,68,0.00,,,0.00,weatherlink.com 1.10,2013-04-10 04:12:00,
2013-04-10 00:27:00,63.5,54.0,30.05,SW,226,0.0,0.0,70,0.00,,,0.00,weatherlink.com 1.10,2013-04-10 04:27:00,
2013-04-10 00:42:00,62.2,53.0,30.04,SW,226,0.0,0.0,72,0.00,,,0.00,weatherlink.com 1.10,2013-04-10 04:42:00,
2013-04-10 00:57:00,61.8,53.0,30.04,SW,226,0.0,0.0,73,0.00,,,0.00,weatherlink.com 1.10,2013-04-10 04:57:00,
2013-04-10 01:13:00,62.3,53.0,30.04,WSW,238,0.0,0.0,72,0.00,,,0.00,weatherlink.com 1.10,2013-04-10 05:13:00,
2013-04-10 01:28:00,62.6,53.0,30.04,SSE,165,0.0,0.0,72,0.00,,,0.00,weatherlink.com 1.10,2013-04-10 05:28:00,
2013-04-10 01:43:00,63.7,54.0,30.04,WNW,285,2.0,2.0,70,0.00,,,0.00,weatherlink.com 1.10,2013-04-10 05:43:00,
2013-04-10 01:58:00,64.1,54.0,30.04,WNW,284,0.0,1.0,69,0.00,,,0.00,weatherlink.com 1.10,2013-04-10 05:58:00,
2013-04-10 02:13:00,64.1,54.0,30.04,West,271,1.0,2.0,69,0.00,,,0.00,weatherlink.com 1.10,2013-04-10 06:13:00,
2013-04-10 02:28:00,63.4,54.0,30.03,East,82,0.0,0.0,71,0.00,,,0.00,weatherlink.com 1.10,2013-04-10 06:28:00,
2013-04-10 02:43:00,63.2,54.0,30.02,SSW,198,0.0,0.0,72,0.00,,,0.00,weatherlink.com 1.10,2013-04-10 06:43:00,
2013-04-10 02:58:00,63.7,54.0,30.02,SW,222,0.0,0.0,71,0.00,,,0.00,weatherlink.com 1.10,2013-04-10 06:58:00,
2013-04-10 03:13:00,63.3,54.0,30.01,SW,218,0.0,1.0,72,0.00,,,0.00,weatherlink.com 1.10,2013-04-10 07:13:00,
2013-04-10 03:37:00,62.7,54.0,30.00,South,172,0.0,0.0,73,0.00,,,0.00,weatherlink.com 1.10,2013-04-10 07:37:00,
2013-04-10 03:43:00,62.3,54.0,30.00,South,172,0.0,0.0,74,0.00,,,0.00,weatherlink.com 1.10,2013-04-10 07:43:00,
2013-04-10 03:58:00,61.9,54.0,29.99,SSW,198,0.0,1.0,75,0.00,,,0.00,weatherlink.com 1.10,2013-04-10 07:58:00,
2013-04-10 04:13:00,60.9,54.0,29.99,SSW,198,0.0,0.0,77,0.00,,,0.00,weatherlink.com 1.10,2013-04-10 08:13:00,
2013-04-10 04:28:00,60.4,54.0,29.99,SSW,198,0.0,0.0,79,0.00,,,0.00,weatherlink.com 1.10,2013-04-10 08:28:00,
2013-04-10 04:43:00,60.7,54.0,29.99,SSW,198,0.0,0.0,78,0.00,,,0.00,weatherlink.com 1.10,2013-04-10 08:43:00,
2013-04-10 04:58:00,60.5,54.0,30.00,SSW,198,0.0,0.0,79,0.00,,,0.00,weatherlink.com 1.10,2013-04-10 08:58:00,
2013-04-10 05:13:00,60.9,54.0,30.00,SW,224,0.0,0.0,78,0.00,,,0.00,weatherlink.com 1.10,2013-04-10 09:13:00,
2013-04-10 05:28:00,59.9,54.0,29.99,SW,224,0.0,0.0,80,0.00,,,0.00,weatherlink.com 1.10,2013-04-10 09:28:00,
2013-04-10 05:43:00,59.9,54.0,29.99,SW,224,0.0,0.0,81,0.00,,,0.00,weatherlink.com 1.10,2013-04-10 09:43:00,
2013-04-10 05:58:00,59.6,54.0,29.99,SW,224,0.0,0.0,81,0.00,,,0.00,weatherlink.com 1.10,2013-04-10 09:58:00,
2013-04-10 06:14:00,59.5,54.0,29.99,SW,224,0.0,0.0,82,0.00,,,0.00,weatherlink.com 1.10,2013-04-10 10:14:00,
2013-04-10 06:28:00,59.7,54.0,29.99,SW,224,0.0,0.0,81,0.00,,,0.00,weatherlink.com 1.10,2013-04-10 10:28:00,
2013-04-10 06:43:00,58.9,54.0,29.99,SW,224,0.0,0.0,83,0.00,,,0.00,weatherlink.com 1.10,2013-04-10 10:43:00,
2013-04-10 06:58:00,58.2,54.0,29.99,SW,224,0.0,0.0,85,0.00,,,0.00,weatherlink.com 1.10,2013-04-10 10:58:00,
2013-04-10 07:13:00,58.2,54.0,29.99,SW,224,0.0,0.0,85,0.00,,,0.00,weatherlink.com 1.10,2013-04-10 11:13:00,
2013-04-10 07:28:00,58.4,54.0,30.00,SW,224,0.0,0.0,85,0.00,,,0.00,weatherlink.com 1.10,2013-04-10 11:28:00,
2013-04-10 07:43:00,58.5,54.0,30.00,SW,224,0.0,0.0,85,0.00,,,0.00,weatherlink.com 1.10,2013-04-10 11:43:00,
2013-04-10 07:58:00,58.9,55.0,30.01,SW,224,0.0,0.0,86,0.00,,,0.00,weatherlink.com 1.10,2013-04-10 11:58:00,
2013-04-10 08:13:00,60.2,55.0,30.01,SW,224,0.0,0.0,84,0.00,,,0.00,weatherlink.com 1.10,2013-04-10 12:13:00,
2013-04-10 08:28:00,62.2,55.0,30.01,SW,224,0.0,0.0,78,0.00,,,0.00,weatherlink.com 1.10,2013-04-10 12:28:00,
2013-04-10 08:43:00,63.5,55.0,30.02,East,87,0.0,0.0,75,0.00,,,0.00,weatherlink.com 1.10,2013-04-10 12:43:00,
2013-04-10 08:58:00,64.3,56.0,30.02,East,88,0.0,0.0,74,0.00,,,0.00,weatherlink.com 1.10,2013-04-10 12:58:00,
2013-04-10 09:13:00,66.9,57.0,30.02,East,87,0.0,0.0,71,0.00,,,0.00,weatherlink.com 1.10,2013-04-10 13:13:00,
2013-04-10 09:28:00,69.5,58.0,30.02,SSE,147,0.0,2.0,67,0.00,,,0.00,weatherlink.com 1.10,2013-04-10 13:28:00,
2013-04-10 09:43:00,70.5,57.0,30.02,West,266,2.0,3.0,63,0.00,,,0.00,weatherlink.com 1.10,2013-04-10 13:43:00,
2013-04-10 09:59:00,71.4,58.0,30.03,SE,124,0.0,4.0,62,0.00,,,0.00,weatherlink.com 1.10,2013-04-10 13:59:00,
2013-04-10 10:14:00,72.2,58.0,30.03,East,82,0.0,3.0,61,0.00,,,0.00,weatherlink.com 1.10,2013-04-10 14:14:00,
2013-04-10 10:29:00,73.4,58.0,30.03,South,186,2.0,3.0,58,0.00,,,0.00,weatherlink.com 1.10,2013-04-10 14:29:00,
2013-04-10 10:44:00,74.1,57.0,30.03,SE,128,0.0,6.0,56,0.00,,,0.00,weatherlink.com 1.10,2013-04-10 14:44:00,
2013-04-10 10:59:00,75.5,57.0,30.03,SE,130,1.0,4.0,53,0.00,,,0.00,weatherlink.com 1.10,2013-04-10 14:59:00,
2013-04-10 11:14:00,76.9,57.0,30.03,SSW,205,0.0,5.0,51,0.00,,,0.00,weatherlink.com 1.10,2013-04-10 15:14:00,
2013-04-10 11:29:00,77.4,58.0,30.03,NW,304,2.0,3.0,51,0.00,,,0.00,weatherlink.com 1.10,2013-04-10 15:29:00,
2013-04-10 11:44:00,77.8,57.0,30.02,West,280,1.0,3.0,49,0.00,,,0.00,weatherlink.com 1.10,2013-04-10 15:44:00,
2013-04-10 11:59:00,78.6,56.0,30.02,NW,308,0.0,3.0,46,0.00,,,0.00,weatherlink.com 1.10,2013-04-10 15:59:00,
2013-04-10 12:14:00,78.7,56.0,30.01,NW,315,2.0,4.0,45,0.00,,,0.00,weatherlink.com 1.10,2013-04-10 16:14:00,
2013-04-10 12:29:00,79.2,56.0,30.00,WSW,256,1.0,5.0,45,0.00,,,0.00,weatherlink.com 1.10,2013-04-10 16:29:00,
2013-04-10 12:44:00,80.9,56.0,30.00,SSW,210,1.0,3.0,43,0.00,,,0.00,weatherlink.com 1.10,2013-04-10 16:44:00,
2013-04-10 12:59:00,81.5,56.0,29.99,West,276,2.0,3.0,42,0.00,,,0.00,weatherlink.com 1.10,2013-04-10 16:59:00,
2013-04-10 13:14:00,81.0,55.0,29.99,WSW,240,1.0,4.0,41,0.00,,,0.00,weatherlink.com 1.10,2013-04-10 17:14:00,
2013-04-10 13:29:00,81.0,56.0,29.99,WNW,291,0.0,6.0,43,0.00,,,0.00,weatherlink.com 1.10,2013-04-10 17:29:00,
2013-04-10 13:44:00,82.5,56.0,29.98,NW,314,2.0,4.0,40,0.00,,,0.00,weatherlink.com 1.10,2013-04-10 17:44:00,
2013-04-10 13:59:00,83.6,55.0,29.98,South,187,0.0,5.0,38,0.00,,,0.00,weatherlink.com 1.10,2013-04-10 17:59:00,
2013-04-10 14:14:00,82.3,56.0,29.97,NNW,342,0.0,5.0,40,0.00,,,0.00,weatherlink.com 1.10,2013-04-10 18:14:00,
2013-04-10 14:29:00,83.7,55.0,29.96,SSE,149,2.0,5.0,38,0.00,,,0.00,weatherlink.com 1.10,2013-04-10 18:29:00,
2013-04-10 14:44:00,83.5,54.0,29.95,SSE,153,3.0,5.0,36,0.00,,,0.00,weatherlink.com 1.10,2013-04-10 18:44:00,
2013-04-10 14:59:00,84.2,52.0,29.95,East,101,1.0,8.0,33,0.00,,,0.00,weatherlink.com 1.10,2013-04-10 18:59:00,
2013-04-10 15:14:00,84.2,54.0,29.95,SW,226,0.0,4.0,35,0.00,,,0.00,weatherlink.com 1.10,2013-04-10 19:14:00,
2013-04-10 15:29:00,83.9,53.0,29.94,ESE,103,1.0,4.0,35,0.00,,,0.00,weatherlink.com 1.10,2013-04-10 19:29:00,
2013-04-10 15:44:00,85.2,53.0,29.93,South,175,1.0,4.0,33,0.00,,,0.00,weatherlink.com 1.10,2013-04-10 19:44:00,
2013-04-10 15:59:00,84.7,53.0,29.92,SSE,165,4.0,5.0,34,0.00,,,0.00,weatherlink.com 1.10,2013-04-10 19:59:00,
2013-04-10 16:15:00,84.9,52.0,29.91,SSW,195,2.0,8.0,32,0.00,,,0.00,weatherlink.com 1.10,2013-04-10 20:15:00,
2013-04-10 16:30:00,85.2,50.0,29.91,NW,305,2.0,3.0,29,0.00,,,0.00,weatherlink.com 1.10,2013-04-10 20:30:00,
2013-04-10 16:45:00,85.4,50.0,29.90,East,100,0.0,4.0,29,0.00,,,0.00,weatherlink.com 1.10,2013-04-10 20:45:00,
2013-04-10 17:00:00,84.8,52.0,29.90,SW,218,1.0,4.0,32,0.00,,,0.00,weatherlink.com 1.10,2013-04-10 21:00:00,
2013-04-10 17:15:00,84.5,53.0,29.89,ESE,121,0.0,4.0,34,0.00,,,0.00,weatherlink.com 1.10,2013-04-10 21:15:00,
2013-04-10 17:30:00,83.7,53.0,29.89,SW,221,1.0,5.0,35,0.00,,,0.00,weatherlink.com 1.10,2013-04-10 21:30:00,
2013-04-10 17:45:00,82.7,53.0,29.89,SSW,201,1.0,5.0,36,0.00,,,0.00,weatherlink.com 1.10,2013-04-10 21:45:00,
2013-04-10 18:00:00,81.7,54.0,29.89,SW,218,2.0,6.0,39,0.00,,,0.00,weatherlink.com 1.10,2013-04-10 22:00:00,
2013-04-10 18:15:00,80.8,55.0,29.89,South,173,1.0,6.0,41,0.00,,,0.00,weatherlink.com 1.10,2013-04-10 22:15:00,
2013-04-10 18:30:00,80.6,54.0,29.89,SW,236,3.0,3.0,40,0.00,,,0.00,weatherlink.com 1.10,2013-04-10 22:30:00,
2013-04-10 18:45:00,79.5,54.0,29.89,South,169,1.0,3.0,41,0.00,,,0.00,weatherlink.com 1.10,2013-04-10 22:45:00,
2013-04-10 19:00:00,78.2,54.0,29.88,ESE,108,0.0,4.0,44,0.00,,,0.00,weatherlink.com 1.10,2013-04-10 23:00:00,
2013-04-10 19:15:00,76.6,54.0,29.88,SE,141,1.0,3.0,45,0.00,,,0.00,weatherlink.com 1.10,2013-04-10 23:15:00,
2013-04-10 19:30:00,75.3,54.0,29.87,SE,131,1.0,3.0,47,0.00,,,0.00,weatherlink.com 1.10,2013-04-10 23:30:00,
2013-04-10 19:45:00,74.4,54.0,29.87,ESE,111,1.0,5.0,49,0.00,,,0.00,weatherlink.com 1.10,2013-04-10 23:45:00,
2013-04-10 20:00:00,73.4,54.0,29.87,SE,126,0.0,3.0,50,0.00,,,0.00,weatherlink.com 1.10,2013-04-11 00:00:00,
2013-04-10 20:15:00,72.4,53.0,29.87,SSW,198,0.0,5.0,51,0.00,,,0.00,weatherlink.com 1.10,2013-04-11 00:15:00,
2013-04-10 20:30:00,72.0,54.0,29.86,SE,127,1.0,7.0,53,0.00,,,0.00,weatherlink.com 1.10,2013-04-11 00:30:00,
2013-04-10 20:45:00,71.5,54.0,29.86,ESE,103,1.0,3.0,54,0.00,,,0.00,weatherlink.com 1.10,2013-04-11 00:45:00,
2013-04-10 21:00:00,70.8,54.0,29.86,South,189,0.0,2.0,56,0.00,,,0.00,weatherlink.com 1.10,2013-04-11 01:00:00,
2013-04-10 21:15:00,70.5,54.0,29.86,SW,231,1.0,3.0,57,0.00,,,0.00,weatherlink.com 1.10,2013-04-11 01:15:00,
2013-04-10 21:30:00,70.4,55.0,29.85,South,170,1.0,4.0,58,0.00,,,0.00,weatherlink.com 1.10,2013-04-11 01:30:00,
2013-04-10 21:45:00,70.2,55.0,29.85,ESE,121,2.0,5.0,58,0.00,,,0.00,weatherlink.com 1.10,2013-04-11 01:45:00,
2013-04-10 22:00:00,70.0,54.0,29.84,SE,141,1.0,3.0,58,0.00,,,0.00,weatherlink.com 1.10,2013-04-11 02:00:00,
2013-04-10 22:15:00,69.8,54.0,29.85,SE,127,0.0,4.0,58,0.00,,,0.00,weatherlink.com 1.10,2013-04-11 02:15:00,
2013-04-10 22:30:00,68.9,54.0,29.85,SSW,210,1.0,1.0,60,0.00,,,0.00,weatherlink.com 1.10,2013-04-11 02:30:00,
2013-04-10 22:45:00,68.5,54.0,29.84,East,96,1.0,7.0,61,0.00,,,0.00,weatherlink.com 1.10,2013-04-11 02:45:00,
2013-04-10 23:00:00,68.4,54.0,29.85,SSE,153,1.0,5.0,61,0.00,,,0.00,weatherlink.com 1.10,2013-04-11 03:00:00,
2013-04-10 23:15:00,68.4,54.0,29.85,South,172,1.0,9.0,61,0.00,,,0.00,weatherlink.com 1.10,2013-04-11 03:15:00,
2013-04-10 23:45:00,68.4,54.0,29.85,ESE,118,0.0,4.0,61,0.00,,,0.00,weatherlink.com 1.10,2013-04-11 03:45:00,